Time;durP1;ratioP1;P1;durP2;ratioP2;P2;SDS_P1;SDS_P2;PMS_P1;PMS_P2;Temp;Humidity;BMP_temperature;BMP_pressure;BME280_temperature;BME280_humidity;BME280_pressure;Samples;Min_cycle;Max_cycle;Signal;HPM_P1;HPM_P2
2021/06/14 00:00:08;;;;;;;4.47;2.37;;;;;;;13.78;72.90;96612.84;4387736;32;20237;-76
2021/06/14 00:02:33;;;;;;;8.73;2.97;;;;;;;13.78;73.13;96618.88;4374331;32;20243;-76
2021/06/14 00:04:59;;;;;;;4.60;3.00;;;;;;;13.83;73.06;96622.94;4388040;32;20217;-76
2021/06/14 00:07:24;;;;;;;6.40;2.80;;;;;;;13.80;73.30;96629.22;4373984;32;20214;-76
2021/06/14 00:09:50;;;;;;;5.17;2.50;;;;;;;13.75;74.12;96629.47;4388085;32;20221;-75
2021/06/14 00:12:21;;;;;;;4.40;2.58;;;;;;;13.73;74.29;96623.53;4387589;32;20217;-75
2021/06/14 00:14:47;;;;;;;5.22;2.67;;;;;;;13.76;74.57;96614.72;4387726;32;20659;-76
2021/06/14 00:17:12;;;;;;;3.65;2.50;;;;;;;13.74;74.14;96614.78;4387564;32;20276;-75
2021/06/14 00:19:38;;;;;;;3.73;2.60;;;;;;;13.71;74.41;96612.38;4387684;32;20271;-76
2021/06/14 00:22:03;;;;;;;9.33;2.80;;;;;;;13.73;73.79;96610.53;4388014;32;20243;-76
2021/06/14 00:24:29;;;;;;;7.00;2.43;;;;;;;13.71;73.20;96609.75;4388050;32;20263;-75
2021/06/14 00:26:54;;;;;;;4.97;2.00;;;;;;;13.68;71.64;96609.13;4412033;27;20369;-76
2021/06/14 00:29:21;;;;;;;3.43;2.23;;;;;;;13.55;70.39;96611.66;4373454;32;20254;-76
2021/06/14 00:31:46;;;;;;;4.90;2.45;;;;;;;13.23;71.78;96605.75;4373683;32;20308;-75
2021/06/14 00:34:12;;;;;;;4.28;2.22;;;;;;;12.87;73.13;96606.16;4387542;32;20209;-75
2021/06/14 00:36:37;;;;;;;4.33;2.60;;;;;;;12.92;72.14;96602.37;4386879;32;20664;-75
2021/06/14 00:39:03;;;;;;;5.00;2.83;;;;;;;12.69;73.73;96597.69;4387361;32;20228;-76
2021/06/14 00:41:29;;;;;;;3.03;2.20;;;;;;;12.53;74.50;96600.31;4387536;32;20609;-76
2021/06/14 00:43:54;;;;;;;5.00;2.53;;;;;;;12.54;74.87;96594.22;4387391;32;20315;-76
2021/06/14 00:46:21;;;;;;;5.12;2.10;;;;;;;12.50;75.01;96584.94;4387098;32;20244;-75
2021/06/14 00:48:46;;;;;;;3.40;2.70;;;;;;;12.53;74.40;96580.41;4373592;32;20230;-76
2021/06/14 00:51:12;;;;;;;4.03;2.83;;;;;;;12.56;75.47;96585.41;4387137;32;20209;-76
2021/06/14 00:53:39;;;;;;;3.90;2.80;;;;;;;12.52;75.93;96583.06;4387345;32;20269;-75
2021/06/14 00:56:07;;;;;;;5.00;2.75;;;;;;;12.34;77.96;96577.16;4387079;32;20213;-76
2021/06/14 00:58:33;;;;;;;6.50;2.60;;;;;;;12.40;77.62;96582.00;4373726;32;20510;-75
2021/06/14 01:00:58;;;;;;;4.80;2.40;;;;;;;12.47;77.84;96578.16;4373673;32;20210;-76
2021/06/14 01:03:26;;;;;;;5.23;2.93;;;;;;;12.56;77.75;96584.56;4373590;32;20244;-75
2021/06/14 01:05:55;;;;;;;6.90;2.87;;;;;;;12.68;77.42;96578.69;4386984;32;20225;-75
2021/06/14 01:08:21;;;;;;;6.28;3.20;;;;;;;12.76;77.80;96576.47;4386934;32;20666;-76
2021/06/14 01:10:49;;;;;;;5.07;2.92;;;;;;;12.78;78.00;96568.56;4387049;32;20214;-75
2021/06/14 01:13:30;;;;;;;4.80;3.10;;;;;;;12.82;78.05;96565.69;4373317;32;20241;-76
2021/06/14 01:16:05;;;;;;;6.03;3.30;;;;;;;12.87;78.34;96570.63;4387077;32;20532;-75
2021/06/14 01:18:41;;;;;;;7.87;3.10;;;;;;;12.64;80.05;96566.75;4387373;32;20234;-75
2021/06/14 01:21:16;;;;;;;4.72;3.12;;;;;;;12.66;79.79;96569.28;4387357;32;20218;-75
2021/06/14 01:23:47;;;;;;;3.53;2.40;;;;;;;12.76;78.78;96568.66;4373167;32;20233;-76
2021/06/14 01:26:16;;;;;;;5.47;2.62;;;;;;;12.88;77.73;96561.91;4387002;32;20234;-76
2021/06/14 01:28:44;;;;;;;4.12;2.85;;;;;;;12.93;76.93;96564.22;4387174;32;20209;-76
2021/06/14 01:31:11;;;;;;;5.15;2.62;;;;;;;12.89;76.98;96560.97;4373163;32;20210;-76
2021/06/14 01:33:38;;;;;;;3.53;2.87;;;;;;;12.92;76.69;96549.56;4386965;32;20242;-76
2021/06/14 01:36:06;;;;;;;2.67;2.40;;;;;;;12.93;76.37;96548.63;4386622;32;20312;-75
2021/06/14 01:38:32;;;;;;;4.55;2.85;;;;;;;12.93;75.57;96543.41;4387330;32;20247;-76
2021/06/14 01:41:02;;;;;;;6.18;2.55;;;;;;;12.79;76.44;96539.03;4390047;32;20249;-75
2021/06/14 01:43:30;;;;;;;5.62;2.12;;;;;;;12.81;75.35;96551.03;4376053;32;20302;-76
2021/06/14 01:46:01;;;;;;;3.45;2.20;;;;;;;12.75;73.05;96547.94;4389284;32;20213;-76
2021/06/14 01:48:28;;;;;;;5.95;2.33;;;;;;;12.52;74.56;96547.53;4389753;32;20338;-76
2021/06/14 01:50:54;;;;;;;2.87;2.28;;;;;;;12.52;72.69;96542.31;4389302;32;20263;-76
2021/06/14 01:53:20;;;;;;;2.67;2.20;;;;;;;12.20;75.55;96545.94;4389622;32;20552;-76
2021/06/14 01:55:47;;;;;;;4.47;2.58;;;;;;;12.21;74.34;96561.44;4389464;32;20256;-76
2021/06/14 01:58:15;;;;;;;5.12;2.70;;;;;;;12.11;76.15;96549.91;4389293;32;20233;-76
2021/06/14 02:00:43;;;;;;;6.93;2.70;;;;;;;12.15;74.49;96548.78;4389500;32;20584;-75
2021/06/14 02:03:11;;;;;;;5.43;2.80;;;;;;;12.06;75.76;96544.97;4389365;32;20933;-76
2021/06/14 02:05:37;;;;;;;6.03;2.90;;;;;;;12.03;77.79;96549.50;4389620;32;20834;-75
2021/06/14 02:08:08;;;;;;;4.27;2.73;;;;;;;11.98;79.04;96549.75;4389648;32;20218;-76
2021/06/14 02:10:34;;;;;;;4.55;3.10;;;;;;;11.97;79.51;96540.28;4375417;32;20206;-76
2021/06/14 02:13:01;;;;;;;4.60;2.62;;;;;;;11.99;78.84;96541.03;4389407;32;20222;-76
2021/06/14 02:15:27;;;;;;;5.43;2.85;;;;;;;12.08;77.70;96537.09;4389065;32;20287;-76
2021/06/14 02:17:56;;;;;;;3.33;2.28;;;;;;;11.99;77.57;96543.63;4375594;32;20221;-76
2021/06/14 02:20:23;;;;;;;4.55;2.60;;;;;;;11.87;76.76;96539.13;4389653;32;20206;-76
2021/06/14 02:22:48;;;;;;;3.40;2.37;;;;;;;11.73;76.03;96534.69;4389354;32;20217;-75
2021/06/14 02:25:14;;;;;;;3.70;2.57;;;;;;;11.58;77.67;96530.34;4389386;32;20275;-75
2021/06/14 02:27:40;;;;;;;5.70;2.10;;;;;;;11.57;77.82;96529.50;4389097;32;20218;-75
2021/06/14 02:30:09;;;;;;;3.55;2.42;;;;;;;11.59;77.39;96527.63;4375176;32;20246;-75
2021/06/14 02:32:34;;;;;;;4.12;2.92;;;;;;;11.65;76.85;96534.28;4375513;32;20214;-75
2021/06/14 02:35:00;;;;;;;3.73;2.67;;;;;;;11.43;79.98;96538.94;4375647;32;20260;-75
2021/06/14 02:37:27;;;;;;;4.93;2.80;;;;;;;11.43;80.86;96533.75;4388455;32;20630;-75
2021/06/14 02:39:53;;;;;;;6.72;2.75;;;;;;;11.54;79.14;96528.81;4388677;32;20575;-75
2021/06/14 02:42:20;;;;;;;6.37;3.05;;;;;;;11.52;77.95;96534.09;4374897;32;20300;-75
2021/06/14 02:44:46;;;;;;;3.97;2.92;;;;;;;11.59;78.46;96532.00;4389262;32;20213;-75
2021/06/14 02:47:16;;;;;;;12.18;3.03;;;;;;;11.44;78.10;96528.47;4388440;32;20213;-75
2021/06/14 02:49:42;;;;;;;4.70;3.22;;;;;;;11.22;77.68;96523.59;4375085;32;20105;-75
2021/06/14 02:52:11;;;;;;;4.00;2.95;;;;;;;11.05;80.46;96534.03;4388600;32;20140;-75
2021/06/14 02:54:41;;;;;;;4.50;2.92;;;;;;;10.91;81.91;96534.75;4374783;32;20454;-75
2021/06/14 02:57:10;;;;;;;5.47;2.90;;;;;;;10.89;82.25;96534.81;4374476;32;20180;-75
2021/06/14 02:59:36;;;;;;;7.15;2.90;;;;;;;10.97;82.54;96525.81;4374896;32;20210;-75
2021/06/14 03:02:02;;;;;;;4.80;3.08;;;;;;;11.08;81.12;96513.13;4388865;32;20239;-75
2021/06/14 03:04:28;;;;;;;4.72;3.40;;;;;;;11.20;80.72;96512.50;4375042;32;20294;-75
2021/06/14 03:06:53;;;;;;;5.00;3.07;;;;;;;11.08;81.22;96505.34;4388161;32;20529;-75
2021/06/14 03:09:21;;;;;;;4.77;3.30;;;;;;;11.02;82.34;96509.13;4374612;32;20698;-75
2021/06/14 03:11:48;;;;;;;4.18;2.62;;;;;;;11.01;82.50;96507.44;4388266;32;20286;-75
2021/06/14 03:14:15;;;;;;;3.87;2.80;;;;;;;11.08;80.51;96513.13;4388534;32;20266;-75
2021/06/14 03:16:43;;;;;;;5.00;3.03;;;;;;;11.15;80.41;96507.53;4373997;32;20214;-75
2021/06/14 03:19:09;;;;;;;4.70;2.92;;;;;;;11.21;80.80;96505.56;4388324;32;20156;-75
2021/06/14 03:21:36;;;;;;;4.10;2.85;;;;;;;11.17;81.16;96510.06;4388336;32;20221;-75
2021/06/14 03:24:03;;;;;;;4.90;3.20;;;;;;;11.14;81.00;96502.44;4388619;32;20492;-75
2021/06/14 03:26:31;;;;;;;4.43;3.05;;;;;;;11.13;80.84;96508.56;4387872;32;20260;-75
2021/06/14 03:28:59;;;;;;;4.72;3.17;;;;;;;11.17;80.99;96498.84;4388421;32;20162;-75
2021/06/14 03:31:27;;;;;;;6.90;3.22;;;;;;;11.15;81.76;96499.75;4384302;32;20260;-74
2021/06/14 03:33:55;;;;;;;4.18;2.78;;;;;;;11.23;81.84;96496.75;4388720;32;20204;-77
2021/06/14 03:36:23;;;;;;;5.62;3.20;;;;;;;11.29;82.02;96496.44;4395138;32;20240;-76
2021/06/14 03:38:52;;;;;;;3.33;2.70;;;;;;;11.40;81.67;96501.03;4388413;32;20209;-74
2021/06/14 03:41:19;;;;;;;4.00;3.10;;;;;;;11.45;81.43;96499.03;4387076;32;20330;-74
2021/06/14 03:43:44;;;;;;;8.57;2.97;;;;;;;11.45;81.05;96499.03;4389426;32;20313;-74
2021/06/14 03:46:11;;;;;;;4.70;2.40;;;;;;;11.45;80.64;96496.41;4387200;32;20239;-74
2021/06/14 03:48:37;;;;;;;4.12;2.67;;;;;;;11.53;77.56;96490.81;4386856;32;20698;-74
2021/06/14 03:51:03;;;;;;;4.20;2.87;;;;;;;11.39;78.45;96495.00;4388373;32;20234;-74
2021/06/14 03:53:31;;;;;;;3.30;2.60;;;;;;;11.43;78.67;96489.66;4386841;32;20679;-74
2021/06/14 03:55:57;;;;;;;3.80;2.87;;;;;;;11.35;78.20;96490.91;4386912;32;20127;-74
2021/06/14 03:58:23;;;;;;;3.53;2.87;;;;;;;10.93;80.54;96493.19;4387807;32;20101;-74
2021/06/14 04:00:48;;;;;;;3.37;2.90;;;;;;;10.75;82.24;96493.22;4381668;32;20337;-74
2021/06/14 04:03:15;;;;;;;7.18;3.03;;;;;;;10.76;82.57;96487.16;4387414;32;20248;-75
2021/06/14 04:05:40;;;;;;;4.80;3.28;;;;;;;10.92;80.37;96488.94;4387698;32;20293;-74
2021/06/14 04:08:06;;;;;;;4.07;2.80;;;;;;;10.88;80.94;96496.03;4374047;32;20248;-74
2021/06/14 04:10:31;;;;;;;3.45;2.70;;;;;;;10.84;81.78;96503.13;4387873;32;20209;-74
2021/06/14 04:12:57;;;;;;;4.35;3.12;;;;;;;10.96;82.37;96493.88;4387733;32;20249;-74
2021/06/14 04:15:22;;;;;;;8.50;3.50;;;;;;;11.03;82.89;96494.41;4388303;32;20530;-74
2021/06/14 04:17:47;;;;;;;6.20;3.10;;;;;;;11.17;82.42;96488.50;4387584;32;20248;-75
2021/06/14 04:20:17;;;;;;;4.13;3.00;;;;;;;11.23;82.52;96486.38;4374279;32;20210;-74
2021/06/14 04:22:42;;;;;;;3.62;2.90;;;;;;;11.29;82.24;96483.47;4374085;32;20500;-74
2021/06/14 04:25:09;;;;;;;4.13;3.03;;;;;;;11.41;82.06;96488.91;4388311;32;20244;-74
2021/06/14 04:27:34;;;;;;;5.13;3.40;;;;;;;11.50;81.89;96483.22;4374056;32;20202;-75
2021/06/14 04:29:59;;;;;;;5.53;3.47;;;;;;;11.57;81.35;96479.37;4387969;32;20256;-74
2021/06/14 04:32:25;;;;;;;4.87;3.20;;;;;;;11.65;81.39;96486.72;4374851;32;20259;-74
2021/06/14 04:34:54;;;;;;;4.53;3.00;;;;;;;11.84;80.52;96490.81;4388905;32;20259;-75
2021/06/14 04:37:21;;;;;;;5.70;3.53;;;;;;;11.82;80.60;96495.22;4373572;32;20213;-73
2021/06/14 04:39:46;;;;;;;5.43;3.25;;;;;;;11.79;80.55;96494.56;4386681;32;20213;-74
2021/06/14 04:42:11;;;;;;;5.10;3.43;;;;;;;11.84;80.53;96493.41;4387456;32;20251;-74
2021/06/14 04:44:37;;;;;;;5.13;3.40;;;;;;;11.89;80.36;96487.97;4373487;32;20257;-75
2021/06/14 04:47:02;;;;;;;5.07;3.27;;;;;;;12.08;79.73;96485.97;4387393;32;20584;-74
2021/06/14 04:49:28;;;;;;;4.85;2.83;;;;;;;12.22;79.30;96482.59;4373897;32;20253;-74
2021/06/14 04:51:53;;;;;;;5.67;3.30;;;;;;;12.31;78.78;96481.22;4388413;32;20221;-75
2021/06/14 04:54:20;;;;;;;5.03;3.10;;;;;;;12.22;77.97;96482.59;4388139;32;20213;-75
2021/06/14 04:56:45;;;;;;;4.05;3.08;;;;;;;12.37;78.15;96475.69;4387152;32;20572;-75
2021/06/14 04:59:11;;;;;;;4.90;3.60;;;;;;;12.52;77.01;96472.19;4387530;32;20256;-75
2021/06/14 05:01:36;;;;;;;5.53;3.30;;;;;;;12.60;76.48;96472.53;4387043;32;20292;-75
2021/06/14 05:04:02;;;;;;;4.57;3.60;;;;;;;12.76;75.67;96474.25;4389741;32;20248;-74
2021/06/14 05:06:27;;;;;;;5.00;3.33;;;;;;;13.10;77.39;96462.63;4392310;32;20291;-75
2021/06/14 05:08:52;;;;;;;4.70;3.43;;;;;;;13.27;77.71;96459.84;4390804;32;20201;-75
2021/06/14 05:11:19;;;;;;;4.40;3.10;;;;;;;13.28;76.98;96466.72;4388840;32;20217;-75
2021/06/14 05:13:45;;;;;;;5.15;3.35;;;;;;;13.19;76.47;96467.25;4387993;32;20582;-75
2021/06/14 05:16:10;;;;;;;3.75;2.95;;;;;;;13.00;74.49;96467.53;4390422;32;20213;-74
2021/06/14 05:18:35;;;;;;;7.97;3.40;;;;;;;13.09;73.94;96466.16;4390378;32;20218;-75
2021/06/14 05:21:01;;;;;;;6.27;3.03;;;;;;;12.88;73.97;96459.69;4388826;32;20213;-75
2021/06/14 05:23:27;;;;;;;5.85;3.30;;;;;;;13.14;73.97;96452.88;4389855;32;20221;-75
2021/06/14 05:25:52;;;;;;;6.03;3.65;;;;;;;13.11;73.32;96461.69;4390118;32;20296;-75
2021/06/14 05:28:19;;;;;;;6.30;3.33;;;;;;;13.12;73.32;96465.13;4388316;32;20256;-75
2021/06/14 05:30:45;;;;;;;5.80;3.10;;;;;;;13.13;73.02;96462.44;4389905;32;20638;-75
2021/06/14 05:33:10;;;;;;;4.03;3.00;;;;;;;13.46;73.18;96458.66;4389705;32;20217;-75
2021/06/14 05:35:35;;;;;;;6.43;3.30;;;;;;;13.72;71.82;96462.22;4389574;32;20235;-75
2021/06/14 05:38:01;;;;;;;5.07;3.40;;;;;;;13.40;72.35;96462.50;4375974;32;20663;-75
2021/06/14 05:40:26;;;;;;;6.40;4.10;;;;;;;13.32;72.28;96454.34;4389843;32;20218;-75
2021/06/14 05:42:52;;;;;;;4.50;3.10;;;;;;;13.14;72.77;96458.91;4389472;32;20281;-74
2021/06/14 05:45:19;;;;;;;6.03;3.50;;;;;;;13.35;72.00;96458.50;4376316;32;20332;-80
2021/06/14 05:47:44;;;;;;;6.25;3.50;;;;;;;13.43;71.34;96458.88;4378207;32;20229;-80
2021/06/14 05:50:11;;;;;;;6.87;3.60;;;;;;;13.51;71.59;96457.47;4377904;32;20670;-80
2021/06/14 05:52:37;;;;;;;5.00;3.40;;;;;;;13.60;70.94;96456.03;4377940;32;20209;-76
2021/06/14 05:55:03;;;;;;;7.73;3.90;;;;;;;13.69;71.44;96457.22;4390357;32;20241;-74
2021/06/14 05:57:28;;;;;;;5.35;3.60;;;;;;;13.67;71.15;96462.50;4389510;32;20279;-74
2021/06/14 05:59:54;;;;;;;4.33;2.97;;;;;;;13.83;71.00;96461.53;4389533;32;20210;-74
2021/06/14 06:02:20;;;;;;;8.52;3.70;;;;;;;14.10;70.90;96464.13;4389258;32;20241;-73
2021/06/14 06:04:46;;;;;;;4.50;3.37;;;;;;;14.37;69.36;96466.66;4389319;32;20237;-74
2021/06/14 06:07:11;;;;;;;7.40;3.40;;;;;;;14.53;69.00;96475.13;4389081;32;20671;-74
2021/06/14 06:09:36;;;;;;;5.07;3.17;;;;;;;14.42;68.58;96468.00;4389576;32;20256;-74
2021/06/14 06:12:02;;;;;;;4.67;2.93;;;;;;;14.83;68.17;96479.22;4389094;32;20266;-74
2021/06/14 06:14:28;;;;;;;4.35;3.37;;;;;;;15.25;67.49;96465.81;4389114;32;20257;-74
2021/06/14 06:16:54;;;;;;;4.90;2.85;;;;;;;15.37;66.04;96460.66;4374848;32;20256;-75
2021/06/14 06:19:20;;;;;;;7.17;3.03;;;;;;;15.35;64.82;96458.19;4375430;32;20218;-75
2021/06/14 06:21:46;;;;;;;4.15;2.70;;;;;;;15.64;62.78;96463.91;4389397;32;20230;-73
2021/06/14 06:24:11;;;;;;;7.68;3.50;;;;;;;15.65;62.51;96463.00;4389387;32;20253;-75
2021/06/14 06:26:37;;;;;;;6.18;2.80;;;;;;;15.72;63.10;96452.94;4387599;32;20293;-75
2021/06/14 06:29:03;;;;;;;8.93;3.57;;;;;;;15.83;62.48;96453.00;4389017;32;20244;-74
2021/06/14 06:31:30;;;;;;;9.10;3.58;;;;;;;16.02;61.72;96454.25;4388675;32;20676;-76
2021/06/14 06:33:56;;;;;;;4.87;3.05;;;;;;;15.97;63.02;96454.59;4382980;32;20556;-77
2021/06/14 06:36:23;;;;;;;4.53;2.47;;;;;;;16.23;61.54;96454.47;4388403;32;20222;-76
2021/06/14 06:38:49;;;;;;;5.70;3.10;;;;;;;16.14;60.36;96450.75;4388031;32;20340;-76
2021/06/14 06:41:14;;;;;;;7.40;3.12;;;;;;;16.36;60.81;96442.97;4389007;32;20291;-76
2021/06/14 06:43:40;;;;;;;4.28;3.00;;;;;;;16.70;60.36;96441.25;4387341;32;20213;-75
2021/06/14 06:46:05;;;;;;;5.20;3.03;;;;;;;16.45;60.40;96441.44;4388356;32;20218;-74
2021/06/14 06:48:31;;;;;;;4.53;2.87;;;;;;;16.69;61.01;96438.75;4388533;32;20218;-74
2021/06/14 06:50:57;;;;;;;6.60;2.80;;;;;;;17.28;60.67;96432.44;4389121;32;20218;-76
2021/06/14 06:53:24;;;;;;;12.77;3.50;;;;;;;17.72;58.80;96436.75;4388308;32;20259;-74
2021/06/14 06:55:50;;;;;;;5.50;3.05;;;;;;;18.03;57.11;96436.94;4388447;32;20316;-75
2021/06/14 06:58:15;;;;;;;5.43;2.87;;;;;;;18.23;57.73;96443.13;4388563;32;20225;-75
2021/06/14 07:00:40;;;;;;;5.43;2.90;;;;;;;18.12;56.67;96441.41;4388838;32;20221;-77
2021/06/14 07:03:07;;;;;;;5.87;3.13;;;;;;;18.08;57.45;96432.97;4388977;32;20206;-75
2021/06/14 07:05:33;;;;;;;10.27;3.22;;;;;;;18.15;57.83;96433.28;4388349;32;20561;-74
2021/06/14 07:07:58;;;;;;;7.03;2.78;;;;;;;18.00;57.82;96438.00;4388617;32;20256;-74
2021/06/14 07:10:25;;;;;;;4.57;2.75;;;;;;;18.25;57.18;96430.75;4376412;32;20217;-77
2021/06/14 07:12:51;;;;;;;5.10;2.85;;;;;;;18.16;57.68;96439.34;4388383;32;20221;-75
2021/06/14 07:15:17;;;;;;;5.77;2.90;;;;;;;18.23;57.62;96443.13;4388171;32;20236;-76
2021/06/14 07:17:44;;;;;;;7.10;2.65;;;;;;;18.57;56.65;96449.84;4388706;32;20309;-75
2021/06/14 07:20:11;;;;;;;6.20;2.80;;;;;;;18.73;55.84;96452.06;4388033;32;20881;-73
2021/06/14 07:22:37;;;;;;;4.37;2.70;;;;;;;18.70;55.20;96446.22;4388500;32;20229;-74
2021/06/14 07:25:04;;;;;;;5.50;2.70;;;;;;;18.56;55.48;96457.84;4388245;32;20214;-76
2021/06/14 07:27:32;;;;;;;7.32;3.10;;;;;;;18.74;55.53;96453.72;4374167;32;20238;-75
2021/06/14 07:29:57;;;;;;;5.65;3.00;;;;;;;19.35;54.26;96444.97;4387858;32;20547;-74
2021/06/14 07:32:22;;;;;;;4.80;2.50;;;;;;;19.71;53.59;96442.75;4388002;32;20210;-74
2021/06/14 07:34:48;;;;;;;6.13;2.87;;;;;;;19.77;50.82;96447.47;4388586;32;20257;-75
2021/06/14 07:37:13;;;;;;;5.97;2.60;;;;;;;19.43;52.06;96432.03;4387776;32;20218;-76
2021/06/14 07:39:39;;;;;;;6.82;2.83;;;;;;;19.39;52.66;96435.03;4388289;32;20236;-75
2021/06/14 07:42:05;;;;;;;4.20;2.80;;;;;;;19.73;52.58;96435.56;4388437;32;20236;-76
2021/06/14 07:44:32;;;;;;;4.30;2.70;;;;;;;19.69;51.61;96435.00;4388259;32;20585;-74
2021/06/14 07:46:57;;;;;;;4.83;2.90;;;;;;;19.96;51.80;96434.31;4387682;32;20340;-74
2021/06/14 07:49:22;;;;;;;4.43;2.43;;;;;;;19.66;51.20;96430.00;4388564;32;20221;-75
2021/06/14 07:51:48;;;;;;;4.90;2.37;;;;;;;19.94;51.42;96428.38;4388052;32;20639;-76
2021/06/14 07:54:14;;;;;;;7.20;2.60;;;;;;;20.14;51.37;96426.59;4388050;32;20213;-76
2021/06/14 07:56:44;;;;;;;6.03;2.50;;;;;;;20.87;55.49;96421.59;4387485;32;20229;-75
2021/06/14 07:59:09;;;;;;;6.97;2.67;;;;;;;21.18;47.24;96416.91;4387840;32;20218;-76
2021/06/14 08:01:36;;;;;;;6.03;2.70;;;;;;;21.55;44.95;96416.03;4387589;32;20240;-74
2021/06/14 08:04:02;;;;;;;4.32;2.22;;;;;;;21.84;46.49;96420.28;4387661;32;20544;-74
2021/06/14 08:06:27;;;;;;;7.83;2.17;;;;;;;22.02;44.33;96421.09;4387302;32;20239;-75
2021/06/14 08:08:53;;;;;;;3.85;2.42;;;;;;;22.37;45.75;96419.47;4388383;32;20225;-76
2021/06/14 08:11:19;;;;;;;3.50;2.40;;;;;;;22.41;42.37;96416.34;4376492;32;20261;-76
2021/06/14 08:13:44;;;;;;;6.15;2.60;;;;;;;22.38;44.42;96421.94;4389033;32;20616;-73
2021/06/14 08:16:09;;;;;;;4.07;2.27;;;;;;;22.50;43.12;96419.03;4389451;32;20213;-73
2021/06/14 08:18:47;;;;;;;3.33;2.10;;;;;;;22.64;41.83;96416.66;4388142;32;20252;-77
2021/06/14 08:26:25;;;;;;;2.80;2.15;;;;;;;23.32;41.97;96426.44;4387580;32;20243;-77
2021/06/14 08:28:51;;;;;;;3.37;2.10;;;;;;;23.27;42.34;96425.28;4386244;32;20210;-76
2021/06/14 08:31:16;;;;;;;4.57;2.20;;;;;;;23.16;42.74;96421.94;4378454;32;20270;-76
2021/06/14 08:33:43;;;;;;;4.20;2.40;;;;;;;23.21;43.01;96418.81;4387502;32;20316;-75
2021/06/14 08:36:08;;;;;;;5.27;2.57;;;;;;;23.14;40.85;96418.63;4386971;32;20598;-74
2021/06/14 08:38:34;;;;;;;4.13;2.30;;;;;;;23.11;42.75;96420.75;4387185;32;20206;-75
2021/06/14 08:40:59;;;;;;;6.45;2.53;;;;;;;23.11;41.79;96418.13;4387782;32;20218;-75
2021/06/14 08:43:25;;;;;;;6.70;2.30;;;;;;;23.18;44.91;96416.50;4387516;32;20209;-75
2021/06/14 08:45:51;;;;;;;3.78;2.10;;;;;;;23.29;41.22;96418.84;4387369;32;20210;-75
2021/06/14 08:48:18;;;;;;;3.92;2.28;;;;;;;23.55;41.31;96408.22;4387402;32;20311;-74
2021/06/14 08:50:45;;;;;;;4.78;2.65;;;;;;;23.77;37.67;96414.75;4390508;32;20320;-74
2021/06/14 08:53:11;;;;;;;4.22;1.92;;;;;;;23.58;39.88;96415.81;4376531;32;20241;-75
2021/06/14 08:55:36;;;;;;;6.43;2.30;;;;;;;23.46;35.27;96409.16;4389924;32;20267;-76
2021/06/14 08:58:02;;;;;;;4.75;2.20;;;;;;;23.26;38.71;96400.69;4390004;32;20697;-74
2021/06/14 09:00:29;;;;;;;3.28;2.05;;;;;;;23.12;39.50;96407.38;4389850;32;20336;-75
2021/06/14 09:02:56;;;;;;;3.85;2.35;;;;;;;23.11;38.73;96397.81;4390334;32;20530;-76
2021/06/14 09:05:23;;;;;;;5.00;2.03;;;;;;;23.30;41.44;96393.25;4389892;32;20217;-75
2021/06/14 09:07:52;;;;;;;4.80;1.85;;;;;;;23.30;39.92;96390.63;4390030;32;20256;-75
2021/06/14 09:10:24;;;;;;;5.20;2.33;;;;;;;23.42;37.82;96398.06;4389792;32;20525;-75
2021/06/14 09:12:49;;;;;;;4.57;2.10;;;;;;;23.66;35.52;96396.50;4390188;32;20217;-75
2021/06/14 09:15:15;;;;;;;5.03;1.93;;;;;;;24.09;38.08;96391.94;4389832;32;20515;-75
2021/06/14 09:17:51;;;;;;;5.03;2.42;;;;;;;24.26;35.43;96403.37;4389873;32;20328;-75
2021/06/14 09:20:17;;;;;;;6.85;3.30;;;;;;;24.37;37.51;96401.19;4389918;32;20240;-75
2021/06/14 09:22:43;;;;;;;6.72;3.05;;;;;;;24.36;38.35;96396.91;4390153;32;20271;-76
2021/06/14 09:25:12;;;;;;;11.32;2.67;;;;;;;24.41;40.19;96401.72;4389885;32;20252;-76
2021/06/14 09:27:40;;;;;;;6.93;2.50;;;;;;;24.10;38.08;96389.13;4375935;32;20210;-75
2021/06/14 09:30:18;;;;;;;7.10;2.45;;;;;;;24.09;38.42;96402.53;4389636;32;20354;-75
2021/06/14 09:32:54;;;;;;;6.40;2.22;;;;;;;23.99;38.60;96404.50;4389857;32;20290;-75
2021/06/14 09:35:21;;;;;;;4.55;2.10;;;;;;;23.89;38.51;96402.00;4389763;32;20209;-74
2021/06/14 09:37:58;;;;;;;2.97;2.00;;;;;;;23.99;36.28;96396.56;4389386;32;20221;-74
2021/06/14 09:40:38;;;;;;;3.78;1.70;;;;;;;24.12;37.91;96399.56;4389643;32;20510;-75
2021/06/14 09:43:05;;;;;;;3.22;1.85;;;;;;;23.69;38.10;96398.00;4389752;32;20221;-75
2021/06/14 09:45:31;;;;;;;3.40;2.00;;;;;;;24.01;34.74;96389.28;4389420;32;20307;-75
2021/06/14 09:47:56;;;;;;;2.50;1.35;;;;;;;24.31;34.73;96388.63;4389588;32;20232;-75
2021/06/14 09:50:25;;;;;;;3.53;1.75;;;;;;;24.51;35.29;96385.66;4389939;32;20226;-75
2021/06/14 09:52:50;;;;;;;6.55;2.10;;;;;;;24.71;31.30;96386.94;4389561;32;20229;-75
2021/06/14 09:55:17;;;;;;;7.12;3.58;;;;;;;25.03;33.10;96382.53;4389507;32;20263;-75
2021/06/14 09:57:44;;;;;;;4.67;1.93;;;;;;;25.06;32.64;96382.19;4375579;32;20308;-75
2021/06/14 10:00:11;;;;;;;4.00;1.75;;;;;;;25.21;36.31;96377.03;4389030;32;20236;-75
2021/06/14 10:02:37;;;;;;;4.78;1.58;;;;;;;24.99;32.44;96376.78;4389212;32;20213;-75
2021/06/14 10:05:14;;;;;;;3.30;1.60;;;;;;;25.00;29.18;96372.28;4389870;32;20298;-75
2021/06/14 10:07:44;;;;;;;3.92;2.15;;;;;;;25.24;35.74;96379.34;4389401;32;20621;-75
2021/06/14 10:10:18;;;;;;;6.60;1.80;;;;;;;25.46;33.86;96375.09;4389219;32;20236;-78
2021/06/14 10:12:48;;;;;;;3.90;1.95;;;;;;;25.04;33.17;96368.31;4375460;32;20568;-76
2021/06/14 10:15:16;;;;;;;4.43;2.33;;;;;;;25.06;33.76;96359.16;4375402;32;20236;-76
2021/06/14 10:17:42;;;;;;;3.65;2.12;;;;;;;25.27;34.72;96355.97;4389072;32;20300;-75
2021/06/14 10:20:10;;;;;;;5.18;2.05;;;;;;;25.70;35.13;96363.53;4389280;32;20240;-77
2021/06/14 10:22:36;;;;;;;5.70;2.03;;;;;;;26.02;36.85;96363.28;4375375;32;20244;-77
2021/06/14 10:25:02;;;;;;;3.40;2.00;;;;;;;25.90;33.29;96346.16;4389124;32;20214;-77
2021/06/14 10:27:27;;;;;;;4.30;2.33;;;;;;;26.00;36.70;96345.91;4374718;32;20299;-77
2021/06/14 10:29:54;;;;;;;3.87;1.97;;;;;;;25.87;35.30;96348.31;4389116;32;20627;-77
2021/06/14 10:32:20;;;;;;;4.03;2.20;;;;;;;25.70;31.56;96344.94;4389060;32;20295;-77
2021/06/14 10:34:48;;;;;;;7.47;2.50;;;;;;;25.77;37.94;96344.06;4388696;32;20237;-77
2021/06/14 10:37:15;;;;;;;8.23;2.05;;;;;;;25.42;39.25;96344.63;4375067;32;20256;-76
2021/06/14 10:39:44;;;;;;;3.75;2.33;;;;;;;25.12;34.58;96343.63;4388851;32;20225;-76
2021/06/14 10:42:11;;;;;;;4.85;1.75;;;;;;;25.16;38.11;96343.09;4388898;32;20244;-77
2021/06/14 10:44:37;;;;;;;3.97;1.92;;;;;;;25.20;32.65;96347.03;4389002;32;20511;-77
2021/06/14 10:47:07;;;;;;;5.10;2.00;;;;;;;25.28;32.32;96341.69;4388583;32;20272;-76
2021/06/14 10:49:32;;;;;;;3.58;1.80;;;;;;;25.21;32.45;96340.72;4389012;32;20214;-77
2021/06/14 10:51:59;;;;;;;8.33;1.87;;;;;;;25.27;30.72;96329.44;4388693;32;20387;-77
2021/06/14 10:54:36;;;;;;;4.37;1.95;;;;;;;24.91;34.68;96325.63;4375036;32;20238;-77
2021/06/14 10:57:02;;;;;;;8.75;2.10;;;;;;;25.06;36.79;96330.00;4374714;32;20214;-77
2021/06/14 10:59:35;;;;;;;3.08;1.83;;;;;;;25.13;35.98;96324.06;4388888;32;20625;-76
2021/06/14 11:02:05;;;;;;;4.87;1.80;;;;;;;25.30;34.54;96320.34;4388631;32;20220;-76
2021/06/14 11:04:31;;;;;;;3.97;2.05;;;;;;;25.48;33.00;96322.72;4387285;32;20239;-75
2021/06/14 11:06:58;;;;;;;10.93;2.03;;;;;;;25.67;37.50;96318.78;4388256;32;20526;-75
2021/06/14 11:09:24;;;;;;;6.60;1.83;;;;;;;25.69;32.95;96312.25;4387006;32;20218;-75
2021/06/14 11:11:52;;;;;;;3.03;1.77;;;;;;;25.73;38.10;96310.09;4388100;32;20218;-76
2021/06/14 11:14:37;;;;;;;6.22;2.50;;;;;;;25.61;39.27;96308.84;4388182;32;20232;-76
2021/06/14 11:17:19;;;;;;;7.32;2.20;;;;;;;25.59;33.16;96312.53;4383238;32;20257;-75
2021/06/14 11:19:46;;;;;;;3.97;1.98;;;;;;;25.84;36.68;96312.34;4385312;32;20620;-76
2021/06/14 11:22:12;;;;;;;2.83;1.60;;;;;;;25.91;36.99;96309.81;4384924;32;20657;-76
2021/06/14 11:24:40;;;;;;;3.03;1.98;;;;;;;25.62;31.25;96310.50;4391702;32;20308;-75
2021/06/14 11:27:09;;;;;;;2.42;1.70;;;;;;;25.78;34.24;96303.28;4372935;32;20598;-76
2021/06/14 11:29:43;;;;;;;4.55;1.85;;;;;;;25.79;35.90;96299.63;4374159;32;20649;-76
2021/06/14 11:32:08;;;;;;;3.62;1.87;;;;;;;25.94;32.51;96296.19;4376314;32;20723;-76
2021/06/14 11:34:40;;;;;;;2.30;1.60;;;;;;;25.87;32.75;96290.78;4403289;32;20243;-76
2021/06/14 11:37:06;;;;;;;3.55;2.00;;;;;;;25.48;28.72;96283.75;4403149;32;20238;-74